Time;durP1;ratioP1;P1;durP2;ratioP2;P2;SDS_P1;SDS_P2;PMS_P1;PMS_P2;Temp;Humidity;BMP_temperature;BMP_pressure;BME280_temperature;BME280_humidity;BME280_pressure;Samples;Min_cycle;Max_cycle;Signal;HPM_P1;HPM_P2
2022/07/30 00:00:35;;;;;;;7.07;3.85;;;;;;;19.39;69.88;99530.69;4841756;29;20061;-77
2022/07/30 00:03:00;;;;;;;7.25;3.10;;;;;;;19.37;69.88;99535.25;4840393;29;20490;-77
2022/07/30 00:05:25;;;;;;;5.70;3.35;;;;;;;19.32;70.12;99535.63;4841359;29;20053;-77
2022/07/30 00:07:51;;;;;;;7.22;3.90;;;;;;;19.27;70.30;99532.56;4841563;29;20049;-77
2022/07/30 00:10:16;;;;;;;8.00;3.20;;;;;;;19.31;70.20;99539.25;4841503;29;20116;-77
2022/07/30 00:12:41;;;;;;;8.40;3.97;;;;;;;19.31;70.30;99535.78;4841598;29;20089;-77
2022/07/30 00:15:07;;;;;;;5.25;2.97;;;;;;;19.29;70.74;99530.59;4841437;29;20057;-77
2022/07/30 00:17:33;;;;;;;4.45;3.50;;;;;;;19.22;70.62;99512.78;4841166;29;20041;-77
2022/07/30 00:19:58;;;;;;;7.15;3.67;;;;;;;19.24;70.89;99516.13;4841397;29;20509;-76
2022/07/30 00:22:23;;;;;;;8.82;3.65;;;;;;;19.21;71.09;99504.00;4841396;29;20030;-77
2022/07/30 00:24:48;;;;;;;5.28;3.35;;;;;;;19.21;71.05;99509.28;4841560;29;20053;-77
2022/07/30 00:27:14;;;;;;;5.80;3.03;;;;;;;19.20;71.06;99508.47;4840973;29;20029;-77
2022/07/30 00:29:39;;;;;;;9.45;3.67;;;;;;;19.05;71.31;99487.81;4841292;29;20033;-77
2022/07/30 00:32:05;;;;;;;5.10;3.03;;;;;;;19.10;71.29;99496.19;4841336;29;20129;-77
2022/07/30 00:34:31;;;;;;;6.15;3.40;;;;;;;19.06;71.73;99492.13;4840952;29;20040;-76
2022/07/30 00:36:56;;;;;;;6.38;3.67;;;;;;;19.10;71.72;99493.53;4841463;29;20036;-76
2022/07/30 00:39:21;;;;;;;5.22;3.00;;;;;;;19.02;72.01;99483.63;4841189;29;20034;-76
2022/07/30 00:42:02;;;;;;;4.32;2.90;;;;;;;19.03;71.72;99490.56;4841377;29;20029;-76
2022/07/30 00:44:28;;;;;;;6.82;3.00;;;;;;;19.10;71.94;99497.00;4841087;29;20034;-77
2022/07/30 00:46:54;;;;;;;6.97;2.92;;;;;;;19.10;72.00;99502.28;4841090;29;20415;-77
2022/07/30 00:49:20;;;;;;;5.80;3.13;;;;;;;19.06;72.41;99492.97;4840893;29;20046;-77
2022/07/30 00:51:46;;;;;;;5.35;3.08;;;;;;;19.04;72.50;99489.59;4841331;29;20045;-77
2022/07/30 00:54:12;;;;;;;4.72;3.50;;;;;;;19.07;72.28;99486.69;4840995;29;20041;-77
2022/07/30 00:56:38;;;;;;;5.28;2.80;;;;;;;19.08;72.21;99493.66;4843922;29;20132;-77
2022/07/30 00:59:04;;;;;;;4.25;2.97;;;;;;;19.02;72.54;99480.16;4844852;29;20121;-77
2022/07/30 01:01:34;;;;;;;6.93;3.20;;;;;;;19.00;72.74;99482.91;4844805;29;20410;-77
2022/07/30 01:04:00;;;;;;;6.07;2.85;;;;;;;19.05;72.86;99490.47;4844757;29;20042;-77
2022/07/30 01:06:25;;;;;;;8.85;3.60;;;;;;;19.05;72.77;99483.38;4844706;29;20095;-77
2022/07/30 01:08:51;;;;;;;7.00;3.17;;;;;;;19.07;72.90;99491.16;4844830;29;20030;-76
2022/07/30 01:11:16;;;;;;;10.10;3.40;;;;;;;18.98;72.75;99471.66;4844548;29;20113;-77
2022/07/30 01:13:42;;;;;;;6.88;3.17;;;;;;;19.05;72.91;99488.66;4844513;29;20033;-76
2022/07/30 01:16:08;;;;;;;6.72;3.22;;;;;;;18.98;73.31;99478.72;4827724;29;20403;-76
2022/07/30 01:21:27;;;;;;;4.32;3.35;;;;;;;18.93;73.13;99477.31;4844261;29;20414;-76
2022/07/30 01:23:58;;;;;;;6.72;3.47;;;;;;;18.95;73.43;99477.19;4844448;29;20033;-76
2022/07/30 01:26:25;;;;;;;8.32;3.35;;;;;;;19.02;73.45;99480.16;4844035;29;20041;-76
2022/07/30 01:28:54;;;;;;;5.93;3.15;;;;;;;19.00;73.44;99468.88;4844343;29;20022;-77
2022/07/30 01:31:23;;;;;;;6.05;2.92;;;;;;;18.94;73.21;99468.44;4844178;29;20030;-76
2022/07/30 01:33:50;;;;;;;11.43;3.13;;;;;;;18.91;73.41;99455.47;4844373;29;20026;-77
2022/07/30 01:36:19;;;;;;;3.95;2.83;;;;;;;18.94;73.31;99464.94;4843989;29;20491;-77
2022/07/30 01:38:47;;;;;;;5.57;3.10;;;;;;;18.92;73.72;99465.09;4844225;29;20037;-77
2022/07/30 01:41:14;;;;;;;9.65;3.28;;;;;;;18.92;73.60;99454.53;4844007;29;20037;-77
2022/07/30 01:43:41;;;;;;;4.50;2.97;;;;;;;18.89;73.44;99448.69;4844269;29;20041;-76
2022/07/30 01:46:07;;;;;;;7.28;3.15;;;;;;;18.95;73.53;99453.41;4844197;29;20030;-77
2022/07/30 01:48:35;;;;;;;6.35;3.08;;;;;;;18.99;73.06;99457.47;4843633;29;20038;-77
2022/07/30 01:51:04;;;;;;;10.20;3.10;;;;;;;18.93;73.04;99436.91;4844018;29;20030;-77
2022/07/30 01:53:32;;;;;;;7.13;3.17;;;;;;;18.92;73.48;99438.69;4843621;29;20030;-77
2022/07/30 01:56:00;;;;;;;11.35;3.20;;;;;;;18.99;73.13;99452.19;4843788;29;20030;-77
2022/07/30 01:58:30;;;;;;;9.05;3.17;;;;;;;18.93;73.43;99439.53;4843698;29;20106;-77
2022/07/30 02:00:59;;;;;;;5.47;3.07;;;;;;;18.93;73.37;99437.72;4844102;29;20034;-77
2022/07/30 02:03:25;;;;;;;7.35;3.55;;;;;;;18.98;73.45;99450.53;4843373;29;20034;-76
2022/07/30 02:06:08;;;;;;;4.85;2.60;;;;;;;18.99;73.18;99451.38;4843913;29;20046;-77
2022/07/30 02:08:44;;;;;;;5.18;2.83;;;;;;;18.93;73.09;99445.66;4842571;29;20101;-76
2022/07/30 02:11:14;;;;;;;3.40;2.72;;;;;;;18.89;73.12;99433.69;4843656;29;20034;-77
2022/07/30 02:13:54;;;;;;;4.90;2.60;;;;;;;18.98;73.18;99449.69;4843274;29;20486;-76
2022/07/30 02:16:26;;;;;;;5.82;2.92;;;;;;;18.90;73.50;99445.91;4843154;29;20081;-77
2022/07/30 02:19:01;;;;;;;5.72;3.25;;;;;;;18.76;73.97;99430.41;4843381;29;20078;-76
2022/07/30 02:21:33;;;;;;;4.68;3.00;;;;;;;18.90;73.63;99443.25;4843502;29;20089;-77
2022/07/30 02:24:01;;;;;;;5.28;3.13;;;;;;;18.95;73.63;99446.34;4843330;29;20162;-77
2022/07/30 02:26:28;;;;;;;5.28;3.45;;;;;;;18.96;73.66;99441.88;4826596;29;20034;-76
2022/07/30 02:28:58;;;;;;;5.05;2.80;;;;;;;18.88;73.62;99431.19;4843594;29;20040;-77
2022/07/30 02:31:25;;;;;;;6.18;3.10;;;;;;;18.87;74.19;99432.94;4842995;29;20390;-77
2022/07/30 02:33:56;;;;;;;5.82;3.10;;;;;;;18.81;73.89;99420.28;4843370;29;20057;-76
2022/07/30 02:36:24;;;;;;;5.07;3.17;;;;;;;18.85;74.22;99424.34;4842981;29;20034;-77
2022/07/30 02:38:50;;;;;;;7.25;2.92;;;;;;;18.85;74.11;99424.34;4843233;29;20048;-76
2022/07/30 02:41:18;;;;;;;5.53;2.70;;;;;;;18.79;74.51;99419.56;4843056;29;20066;-76
2022/07/30 02:43:44;;;;;;;5.57;2.75;;;;;;;18.77;74.52;99416.25;4842963;29;20030;-76
2022/07/30 02:46:12;;;;;;;4.38;3.08;;;;;;;18.80;74.70;99433.63;4843182;29;20061;-76
2022/07/30 02:48:39;;;;;;;6.63;2.90;;;;;;;18.77;74.94;99420.69;4842823;29;20201;-76
2022/07/30 02:51:07;;;;;;;6.13;2.90;;;;;;;18.66;74.81;99409.19;4842857;29;20059;-76
2022/07/30 02:53:33;;;;;;;4.80;3.05;;;;;;;18.72;75.31;99420.25;4842683;29;20061;-76
2022/07/30 02:56:00;;;;;;;5.68;2.80;;;;;;;18.65;75.24;99415.44;4842799;29;20034;-76
2022/07/30 02:58:27;;;;;;;4.38;2.72;;;;;;;18.62;75.65;99407.75;4842442;29;20041;-77
2022/07/30 03:00:55;;;;;;;7.15;3.22;;;;;;;18.66;75.38;99422.38;4842629;29;20116;-76
2022/07/30 03:03:27;;;;;;;2.80;2.40;;;;;;;18.69;75.15;99423.94;4842559;29;20040;-76
2022/07/30 03:05:54;;;;;;;4.07;2.80;;;;;;;18.69;75.45;99423.94;4842453;29;20495;-77
2022/07/30 03:08:20;;;;;;;4.43;2.95;;;;;;;18.66;75.57;99417.09;4842296;29;20025;-77
2022/07/30 03:10:47;;;;;;;5.85;2.95;;;;;;;18.53;75.89;99402.44;4842492;29;20541;-76
2022/07/30 03:13:13;;;;;;;7.28;2.88;;;;;;;18.59;75.92;99402.78;4842408;29;20042;-76
2022/07/30 03:15:47;;;;;;;5.68;3.00;;;;;;;18.59;75.58;99405.41;4842296;29;20049;-76
2022/07/30 03:18:15;;;;;;;7.00;2.88;;;;;;;18.59;75.98;99407.22;4842134;29;20471;-76
2022/07/30 03:20:44;;;;;;;4.53;3.10;;;;;;;18.63;76.03;99411.25;4842184;29;20034;-76
2022/07/30 03:23:14;;;;;;;4.47;2.72;;;;;;;18.57;75.91;99402.03;4842538;29;20378;-76
2022/07/30 03:25:41;;;;;;;6.40;2.97;;;;;;;18.64;75.79;99411.13;4842208;29;20530;-76
2022/07/30 03:28:07;;;;;;;5.05;2.80;;;;;;;18.61;75.74;99402.63;4842312;29;20368;-76
2022/07/30 03:30:34;;;;;;;5.20;2.95;;;;;;;18.55;75.78;99398.72;4842324;29;20037;-77
2022/07/30 03:32:59;;;;;;;5.30;3.15;;;;;;;18.53;76.18;99398.00;4842228;29;20483;-76
2022/07/30 03:35:26;;;;;;;3.45;2.90;;;;;;;18.49;75.99;99386.03;4842149;29;20034;-76
2022/07/30 03:37:52;;;;;;;6.43;3.10;;;;;;;18.49;76.04;99399.22;4842287;29;20038;-76
2022/07/30 03:40:19;;;;;;;5.60;2.60;;;;;;;18.42;76.45;99388.34;4842285;29;20030;-76
2022/07/30 03:42:45;;;;;;;5.85;2.85;;;;;;;18.53;76.54;99399.78;4841959;29;20465;-76
2022/07/30 03:45:14;;;;;;;5.72;2.95;;;;;;;18.48;76.18;99389.63;4841757;29;20068;-77
2022/07/30 03:47:41;;;;;;;8.30;3.22;;;;;;;18.51;76.12;99399.09;4841597;29;20037;-77
2022/07/30 03:50:08;;;;;;;3.53;2.70;;;;;;;18.50;76.19;99395.63;4841871;29;20121;-77
2022/07/30 03:52:36;;;;;;;4.85;3.00;;;;;;;18.51;76.68;99397.28;4841518;29;20041;-77
2022/07/30 03:55:02;;;;;;;5.97;2.97;;;;;;;18.44;76.58;99385.56;4842139;29;20525;-77
2022/07/30 03:57:28;;;;;;;6.47;2.70;;;;;;;18.47;76.79;99389.78;4841538;29;20364;-77
2022/07/30 03:59:53;;;;;;;8.10;3.15;;;;;;;18.39;76.56;99378.06;4841702;29;20094;-77
2022/07/30 04:02:19;;;;;;;6.18;2.80;;;;;;;18.45;76.64;99374.06;4841710;29;20483;-77
2022/07/30 04:04:44;;;;;;;8.23;3.33;;;;;;;18.46;76.42;99373.13;4841355;29;20457;-77
2022/07/30 04:07:10;;;;;;;3.60;2.50;;;;;;;18.49;76.48;99391.28;4841315;29;20546;-77
2022/07/30 04:09:35;;;;;;;5.60;3.05;;;;;;;18.49;76.80;99388.66;4841455;29;20042;-77
2022/07/30 04:12:01;;;;;;;5.05;3.10;;;;;;;18.45;76.31;99382.81;4841914;29;20498;-77
2022/07/30 04:14:37;;;;;;;5.57;2.88;;;;;;;18.44;76.28;99385.56;4841429;29;20052;-77
2022/07/30 04:17:05;;;;;;;3.75;2.80;;;;;;;18.50;76.94;99394.75;4841414;29;20038;-77
2022/07/30 04:19:37;;;;;;;8.48;3.25;;;;;;;18.53;76.56;99391.88;4841196;29;20029;-76
2022/07/30 04:22:05;;;;;;;3.42;2.47;;;;;;;18.55;76.98;99389.97;4841779;29;20026;-76
2022/07/30 04:24:31;;;;;;;4.85;2.90;;;;;;;18.49;77.36;99372.00;4841362;29;20030;-77
2022/07/30 04:26:59;;;;;;;3.20;2.60;;;;;;;18.50;77.47;99384.22;4841462;29;20029;-77
2022/07/30 04:29:24;;;;;;;7.15;3.10;;;;;;;18.51;77.98;99388.53;4840901;29;20068;-77
2022/07/30 04:31:51;;;;;;;7.80;2.90;;;;;;;18.44;79.08;99375.03;4840882;29;20390;-76
2022/07/30 04:34:16;;;;;;;4.85;3.00;;;;;;;18.47;80.01;99373.94;4841242;29;20363;-77
2022/07/30 04:36:43;;;;;;;4.93;2.85;;;;;;;18.50;80.64;99376.31;4841473;29;20030;-77
2022/07/30 04:39:08;;;;;;;6.30;2.70;;;;;;;18.46;80.41;99378.38;4841367;29;20094;-77
2022/07/30 04:41:34;;;;;;;3.92;2.85;;;;;;;18.45;80.41;99376.69;4841021;29;20034;-76
2022/07/30 04:44:00;;;;;;;6.35;2.90;;;;;;;18.40;80.58;99376.25;4840014;29;20041;-76
2022/07/30 04:46:25;;;;;;;7.05;3.00;;;;;;;18.40;80.02;99370.97;4841216;29;20527;-76
2022/07/30 04:48:51;;;;;;;5.75;2.88;;;;;;;18.38;80.36;99363.19;4840937;29;20042;-77
2022/07/30 04:51:25;;;;;;;6.97;3.20;;;;;;;18.44;79.40;99373.22;4841404;29;20032;-77
2022/07/30 04:53:53;;;;;;;5.82;2.85;;;;;;;18.46;79.18;99373.13;4841001;29;20044;-76
2022/07/30 04:56:20;;;;;;;6.75;2.70;;;;;;;18.43;78.97;99365.44;4841354;29;20045;-77
2022/07/30 04:58:46;;;;;;;4.45;2.63;;;;;;;18.49;78.72;99377.28;4841246;29;20067;-77
2022/07/30 05:01:17;;;;;;;4.63;2.85;;;;;;;18.49;78.76;99382.56;4840899;29;20065;-77
2022/07/30 05:03:43;;;;;;;4.50;2.63;;;;;;;18.52;78.28;99377.84;4840986;29;20045;-77
2022/07/30 05:06:11;;;;;;;5.13;2.85;;;;;;;18.50;78.93;99382.44;4841185;29;20052;-77
2022/07/30 05:08:37;;;;;;;4.22;2.70;;;;;;;18.44;78.62;99381.13;4840799;29;20026;-76
2022/07/30 05:11:03;;;;;;;6.55;3.05;;;;;;;18.44;78.29;99386.41;4841053;29;20038;-77
2022/07/30 05:13:28;;;;;;;5.95;3.00;;;;;;;18.42;78.65;99390.16;4840738;29;20089;-77
2022/07/30 05:15:54;;;;;;;5.53;2.90;;;;;;;18.40;78.43;99381.53;4840781;29;20116;-77
2022/07/30 05:18:19;;;;;;;3.50;2.65;;;;;;;18.41;78.36;99385.81;4841150;29;20033;-77
2022/07/30 05:20:44;;;;;;;5.60;3.10;;;;;;;18.43;78.51;99405.00;4840856;29;20479;-76
2022/07/30 05:23:10;;;;;;;3.80;2.45;;;;;;;18.39;78.01;99382.50;4840924;29;20079;-77
2022/07/30 05:25:35;;;;;;;5.32;2.45;;;;;;;18.50;78.41;99395.63;4841032;29;20172;-77
2022/07/30 05:28:00;;;;;;;7.85;2.88;;;;;;;18.49;78.74;99380.75;4840874;29;20026;-77
2022/07/30 05:30:26;;;;;;;5.60;2.83;;;;;;;18.58;77.93;99403.75;4840786;29;20083;-77
2022/07/30 05:32:52;;;;;;;4.22;2.53;;;;;;;18.54;77.81;99394.41;4840726;29;20388;-77
2022/07/30 05:35:17;;;;;;;4.35;2.83;;;;;;;18.60;77.73;99408.88;4840933;29;20090;-77
2022/07/30 05:37:42;;;;;;;3.60;2.47;;;;;;;18.63;77.85;99414.72;4840656;29;20041;-77
2022/07/30 05:40:08;;;;;;;5.60;2.45;;;;;;;18.60;77.83;99408.88;4839580;29;20501;-77
2022/07/30 05:42:34;;;;;;;3.90;2.30;;;;;;;18.64;77.90;99408.47;4842926;29;20446;-77
2022/07/30 05:44:59;;;;;;;3.17;2.70;;;;;;;18.73;77.65;99419.25;4843994;29;20026;-77
2022/07/30 05:47:25;;;;;;;4.03;2.35;;;;;;;18.76;77.62;99411.94;4844129;29;20030;-77
2022/07/30 05:49:51;;;;;;;3.85;2.60;;;;;;;18.84;77.58;99414.75;4843827;29;20061;-77
2022/07/30 05:52:16;;;;;;;2.70;2.30;;;;;;;18.86;76.70;99410.19;4844078;29;20034;-77
2022/07/30 05:54:41;;;;;;;7.50;3.20;;;;;;;18.83;76.36;99404.31;4842800;29;20029;-76
2022/07/30 05:57:07;;;;;;;5.57;2.80;;;;;;;18.93;76.82;99419.25;4843427;29;20053;-76
2022/07/30 05:59:32;;;;;;;4.30;2.33;;;;;;;18.98;76.71;99418.03;4843307;29;20383;-76
2022/07/30 06:01:57;;;;;;;4.00;2.63;;;;;;;18.97;77.23;99424.28;4831422;29;20093;-76
2022/07/30 06:04:23;;;;;;;4.30;2.35;;;;;;;18.95;77.65;99427.03;4834549;29;20121;-77
2022/07/30 06:06:48;;;;;;;4.28;2.80;;;;;;;19.02;77.94;99420.28;4834238;29;20026;-76
2022/07/30 06:09:13;;;;;;;4.65;2.78;;;;;;;18.99;78.28;99417.88;4828375;29;20060;-76
2022/07/30 06:11:39;;;;;;;5.85;2.63;;;;;;;19.07;79.19;99418.06;4839982;29;20554;-78
2022/07/30 06:14:04;;;;;;;3.75;2.42;;;;;;;19.04;79.70;99412.22;4843153;29;20112;-76
2022/07/30 06:16:30;;;;;;;4.50;2.50;;;;;;;19.10;80.13;99409.06;4843340;29;20034;-76
2022/07/30 06:18:55;;;;;;;3.38;2.85;;;;;;;19.21;81.14;99424.81;4843361;29;20045;-75
2022/07/30 06:21:20;;;;;;;4.10;2.80;;;;;;;19.17;80.42;99408.41;4843528;29;20071;-76
2022/07/30 06:23:46;;;;;;;10.73;3.33;;;;;;;19.16;80.73;99408.53;4843242;29;20428;-76
2022/07/30 06:26:12;;;;;;;4.78;2.75;;;;;;;19.16;81.00;99404.06;4843345;29;20072;-76
2022/07/30 06:28:37;;;;;;;3.83;2.78;;;;;;;19.19;81.08;99411.75;4839537;29;20030;-76
2022/07/30 06:31:03;;;;;;;6.45;2.88;;;;;;;19.22;81.66;99413.28;4842997;29;20487;-76
2022/07/30 06:33:28;;;;;;;3.97;2.60;;;;;;;19.29;81.89;99417.06;4838977;29;20040;-76
2022/07/30 06:35:54;;;;;;;3.72;2.47;;;;;;;19.31;81.58;99407.22;4838521;29;20026;-78
2022/07/30 06:38:19;;;;;;;5.78;2.53;;;;;;;19.42;81.17;99403.63;4833563;29;20065;-77
2022/07/30 06:40:45;;;;;;;6.28;2.88;;;;;;;19.40;80.91;99395.00;4831569;29;20050;-77
2022/07/30 06:43:10;;;;;;;3.83;3.03;;;;;;;19.43;80.18;99400.88;4842652;29;20062;-77
2022/07/30 06:45:35;;;;;;;4.40;2.85;;;;;;;19.42;80.66;99407.13;4842509;29;20082;-77
2022/07/30 06:48:01;;;;;;;3.47;2.60;;;;;;;19.43;80.72;99407.97;4843115;29;20202;-76
2022/07/30 06:50:26;;;;;;;3.83;2.60;;;;;;;19.41;80.79;99402.78;4843606;29;20467;-76
2022/07/30 06:52:52;;;;;;;4.07;2.70;;;;;;;19.35;80.29;99407.78;4838670;29;20041;-76
2022/07/30 06:55:17;;;;;;;4.65;2.70;;;;;;;19.31;80.37;99394.00;4824512;29;20030;-76
2022/07/30 06:57:43;;;;;;;4.07;2.70;;;;;;;19.35;80.26;99408.63;4827961;29;20396;-76
2022/07/30 07:00:09;;;;;;;6.47;3.17;;;;;;;19.25;79.98;99399.81;4842699;29;20040;-77
2022/07/30 07:02:34;;;;;;;8.45;2.90;;;;;;;19.31;79.70;99409.84;4834507;29;20040;-77
2022/07/30 07:05:00;;;;;;;9.02;2.78;;;;;;;19.29;79.20;99403.84;4837253;29;20046;-76
2022/07/30 07:07:26;;;;;;;4.97;2.97;;;;;;;19.38;79.82;99407.50;4839958;29;20034;-76
2022/07/30 07:09:51;;;;;;;4.55;2.42;;;;;;;19.40;80.33;99401.13;4841907;29;20037;-76
2022/07/30 07:12:16;;;;;;;3.60;3.00;;;;;;;19.40;80.16;99403.75;4838323;29;20036;-77
2022/07/30 07:14:42;;;;;;;4.50;3.03;;;;;;;19.31;80.15;99399.28;4823846;29;20027;-76
2022/07/30 07:17:07;;;;;;;4.45;2.80;;;;;;;19.22;80.43;99386.06;4824146;29;20058;-76
2022/07/30 07:19:33;;;;;;;6.25;2.80;;;;;;;19.16;80.57;99376.84;4840527;29;20033;-77
2022/07/30 07:21:58;;;;;;;5.07;3.10;;;;;;;19.25;80.92;99383.13;4829100;29;20095;-77
2022/07/30 07:24:23;;;;;;;7.97;3.22;;;;;;;19.20;80.55;99383.53;4824223;29;20118;-77
2022/07/30 07:26:49;;;;;;;3.63;2.65;;;;;;;19.20;81.07;99383.53;4823862;29;20030;-76
2022/07/30 07:29:14;;;;;;;4.43;2.65;;;;;;;19.22;80.84;99393.97;4824066;29;20103;-76
2022/07/30 07:31:40;;;;;;;6.30;2.70;;;;;;;19.14;81.12;99382.25;4823925;29;20494;-76
2022/07/30 07:34:05;;;;;;;9.88;3.15;;;;;;;19.23;81.19;99390.38;4824031;29;20095;-76
2022/07/30 07:36:31;;;;;;;9.98;3.40;;;;;;;19.18;81.96;99377.56;4839708;29;20026;-75
2022/07/30 07:38:56;;;;;;;7.63;3.40;;;;;;;19.24;82.98;99395.50;4829671;29;20105;-76
2022/07/30 07:41:21;;;;;;;8.82;3.20;;;;;;;19.26;84.37;99392.75;4823799;29;20603;-76
2022/07/30 07:43:47;;;;;;;6.68;2.97;;;;;;;19.20;84.60;99376.44;4823476;29;20519;-76
2022/07/30 07:46:15;;;;;;;4.47;3.17;;;;;;;19.27;85.54;99402.34;4823978;29;20030;-76
2022/07/30 07:48:41;;;;;;;9.27;3.00;;;;;;;19.18;85.95;99394.25;4823520;29;20042;-76
2022/07/30 07:51:07;;;;;;;4.90;3.33;;;;;;;19.24;86.59;99400.78;4823842;29;20186;-76
2022/07/30 07:53:32;;;;;;;4.80;3.00;;;;;;;19.27;86.04;99397.06;4823717;29;20159;-76
2022/07/30 07:55:58;;;;;;;5.20;2.90;;;;;;;19.30;85.94;99402.03;4823461;29;20364;-76
2022/07/30 07:58:24;;;;;;;5.40;3.22;;;;;;;19.31;85.59;99401.94;4823519;29;20120;-76
2022/07/30 08:00:49;;;;;;;4.30;3.08;;;;;;;19.31;86.22;99401.94;4823471;29;20109;-76
2022/07/30 08:03:15;;;;;;;8.82;3.30;;;;;;;19.34;85.14;99409.59;4823683;29;20493;-76
2022/07/30 08:05:40;;;;;;;6.63;2.95;;;;;;;19.29;86.10;99406.50;4823121;29;20062;-76
2022/07/30 08:08:05;;;;;;;7.20;3.13;;;;;;;19.28;85.76;99401.34;4823560;29;20026;-76
2022/07/30 08:10:31;;;;;;;6.85;3.15;;;;;;;19.33;86.08;99405.25;4823427;29;20070;-76
2022/07/30 08:12:56;;;;;;;6.63;3.53;;;;;;;19.40;86.23;99421.41;4823001;29;20522;-76
2022/07/30 08:15:23;;;;;;;9.00;3.55;;;;;;;19.38;85.41;99418.94;4823255;29;20066;-76
2022/07/30 08:17:48;;;;;;;6.05;3.40;;;;;;;19.50;86.36;99408.25;4823258;29;20034;-76
2022/07/30 08:20:15;;;;;;;8.10;3.50;;;;;;;19.65;86.68;99407.75;4823421;29;20038;-76
2022/07/30 08:22:40;;;;;;;4.50;2.90;;;;;;;19.82;85.96;99408.09;4823077;29;20065;-76
2022/07/30 08:25:06;;;;;;;5.68;3.45;;;;;;;19.82;84.87;99400.16;4823293;29;20077;-76
2022/07/30 08:27:32;;;;;;;6.05;3.25;;;;;;;19.87;84.85;99401.41;4823250;29;20068;-76
2022/07/30 08:29:57;;;;;;;5.63;3.15;;;;;;;19.95;85.46;99406.00;4823181;29;20031;-76
2022/07/30 08:32:22;;;;;;;5.57;3.05;;;;;;;19.98;85.67;99399.63;4823296;29;20609;-76
2022/07/30 08:34:48;;;;;;;5.47;3.50;;;;;;;19.98;85.19;99397.81;4823074;29;20046;-76
2022/07/30 08:37:14;;;;;;;4.85;3.35;;;;;;;19.93;84.34;99398.25;4823102;29;20079;-75
2022/07/30 08:39:39;;;;;;;4.45;3.03;;;;;;;19.92;84.59;99411.56;4822874;29;20038;-76
2022/07/30 08:42:05;;;;;;;9.57;3.60;;;;;;;19.88;84.84;99399.59;4823367;29;20041;-75
2022/07/30 08:44:32;;;;;;;4.20;3.08;;;;;;;19.91;84.98;99407.25;4823320;29;20037;-76
2022/07/30 08:46:59;;;;;;;7.65;3.47;;;;;;;19.92;83.68;99390.41;4822960;29;20034;-76
2022/07/30 08:49:25;;;;;;;6.65;3.65;;;;;;;20.01;83.36;99405.44;4823129;29;20100;-76
2022/07/30 08:51:51;;;;;;;4.22;3.10;;;;;;;19.96;83.10;99389.19;4822828;29;20035;-76
2022/07/30 08:54:20;;;;;;;4.07;3.00;;;;;;;19.91;83.89;99399.34;4822973;29;20536;-76
2022/07/30 08:56:48;;;;;;;5.25;2.90;;;;;;;19.89;84.59;99396.84;4822621;29;20560;-76
2022/07/30 08:59:15;;;;;;;5.82;3.00;;;;;;;19.88;83.67;99400.44;4806574;29;20035;-76
2022/07/30 09:01:40;;;;;;;6.80;3.45;;;;;;;19.82;84.57;99385.13;4822852;29;20110;-76
2022/07/30 09:04:06;;;;;;;6.30;3.30;;;;;;;19.80;85.57;99388.88;4823154;29;20121;-76
2022/07/30 09:06:31;;;;;;;3.75;3.30;;;;;;;19.89;88.06;99403.94;4822705;29;20054;-76
2022/07/30 09:08:56;;;;;;;4.55;3.53;;;;;;;19.98;90.06;99397.00;4822397;29;20079;-76
2022/07/30 09:11:22;;;;;;;3.80;3.00;;;;;;;19.96;90.42;99386.53;4822681;29;20041;-76
2022/07/30 09:13:49;;;;;;;3.85;3.17;;;;;;;20.13;90.47;99401.72;4822535;29;20036;-76
2022/07/30 09:16:22;;;;;;;3.72;3.03;;;;;;;20.10;90.08;99390.56;4823290;29;20069;-76
2022/07/30 09:18:48;;;;;;;5.88;3.40;;;;;;;20.09;90.34;99395.03;4825924;29;20391;-76
2022/07/30 09:21:23;;;;;;;4.30;3.40;;;;;;;20.10;91.37;99390.56;4826079;29;20030;-76
2022/07/30 09:24:11;;;;;;;4.53;2.90;;;;;;;20.14;91.24;99403.41;4825464;29;20052;-76
2022/07/30 09:26:54;;;;;;;5.13;2.92;;;;;;;20.11;91.62;99408.13;4826067;29;20030;-76
2022/07/30 09:29:22;;;;;;;5.88;3.20;;;;;;;20.08;92.26;99408.41;4825885;29;20053;-78
2022/07/30 09:32:04;;;;;;;4.85;3.33;;;;;;;20.05;93.52;99400.72;4825702;29;20065;-77
2022/07/30 09:34:32;;;;;;;6.07;3.38;;;;;;;20.09;94.17;99407.41;4825958;29;20030;-77
2022/07/30 09:37:17;;;;;;;4.93;3.58;;;;;;;20.04;95.36;99412.28;4825693;29;20103;-77
2022/07/30 09:39:43;;;;;;;5.55;2.88;;;;;;;19.96;95.79;99410.31;4825571;29;20163;-78
2022/07/30 09:42:18;;;;;;;9.05;5.95;;;;;;;19.98;98.53;99416.31;4825682;29;20042;-77
2022/07/30 09:44:44;;;;;;;5.55;3.50;;;;;;;20.01;97.77;99420.47;4825257;29;20387;-76
2022/07/30 09:47:29;;;;;;;5.35;3.67;;;;;;;19.95;98.36;99406.00;4825677;29;20035;-78
2022/07/30 09:50:06;;;;;;;5.50;3.92;;;;;;;19.95;99.47;99406.00;4825414;29;20030;-76
2022/07/30 09:52:32;;;;;;;6.15;3.47;;;;;;;19.98;100.00;99423.44;4825580;29;20042;-78
2022/07/30 09:54:58;;;;;;;3.97;3.30;;;;;;;19.95;100.00;99416.59;4825211;29;20092;-77
2022/07/30 09:57:24;;;;;;;8.13;3.63;;;;;;;19.97;100.00;99419.09;4825705;29;20046;-77
2022/07/30 09:59:49;;;;;;;6.15;3.83;;;;;;;19.98;100.00;99426.91;4825660;29;20038;-76
2022/07/30 10:02:15;;;;;;;4.72;3.50;;;;;;;19.91;100.00;99431.06;4825444;29;20031;-77
2022/07/30 10:04:40;;;;;;;6.63;3.55;;;;;;;19.81;100.00;99425.75;4825151;29;20138;-77
2022/07/30 10:07:16;;;;;;;7.85;3.90;;;;;;;19.71;100.00;99416.94;4825042;29;20035;-76
2022/07/30 10:09:44;;;;;;;8.60;3.55;;;;;;;19.68;100.00;99427.81;4825054;29;20075;-76
2022/07/30 10:12:12;;;;;;;5.18;3.55;;;;;;;19.53;100.00;99416.75;4824997;29;20038;-77
2022/07/30 10:14:42;;;;;;;5.07;3.53;;;;;;;19.48;100.00;99410.19;4825241;29;20034;-77
2022/07/30 10:17:08;;;;;;;4.45;3.70;;;;;;;19.46;100.00;99420.88;4824893;29;20034;-77
2022/07/30 10:19:33;;;;;;;6.28;4.07;;;;;;;19.44;100.00;99417.53;4824930;29;20451;-76
2022/07/30 10:21:59;;;;;;;5.53;4.35;;;;;;;19.29;100.00;99413.59;4824764;29;20034;-78
2022/07/30 10:24:24;;;;;;;7.30;4.00;;;;;;;19.24;100.00;99413.97;4825214;29;20113;-77
2022/07/30 10:26:53;;;;;;;7.35;4.07;;;;;;;19.20;100.00;99397.56;4824624;29;20483;-77
2022/07/30 10:29:19;;;;;;;6.80;4.35;;;;;;;19.38;100.00;99415.41;4823896;29;20026;-77
2022/07/30 10:31:46;;;;;;;11.15;10.15;;;;;;;19.36;100.00;99417.38;4824955;29;20034;-77
2022/07/30 10:34:13;;;;;;;6.32;4.75;;;;;;;19.23;100.00;99409.69;4824899;29;20030;-77
2022/07/30 10:36:42;;;;;;;11.20;9.68;;;;;;;19.15;100.00;99405.06;4824748;29;20038;-76
2022/07/30 10:39:11;;;;;;;6.57;5.63;;;;;;;19.24;100.00;99419.25;4824637;29;20480;-77
2022/07/30 10:42:09;;;;;;;6.50;5.38;;;;;;;19.26;100.00;99413.88;4824966;29;20034;-76
2022/07/30 10:44:50;;;;;;;7.68;5.30;;;;;;;19.22;100.00;99412.47;4824772;29;20023;-77
2022/07/30 10:47:17;;;;;;;6.47;4.65;;;;;;;19.14;100.00;99402.56;4824914;29;20030;-77
2022/07/30 10:50:21;;;;;;;5.57;4.85;;;;;;;19.08;100.00;99401.25;4824761;29;20067;-77
2022/07/30 10:52:59;;;;;;;7.03;5.93;;;;;;;19.07;100.00;99404.03;4750790;30;20617;-77
2022/07/30 10:55:28;;;;;;;9.95;6.18;;;;;;;19.12;100.00;99397.38;4750480;30;20044;-77
2022/07/30 10:58:08;;;;;;;7.53;5.85;;;;;;;19.16;100.00;99398.78;4749905;30;20040;-77
2022/07/30 11:00:53;;;;;;;9.47;6.67;;;;;;;19.33;100.00;99404.44;4750347;30;20040;-77
2022/07/30 11:03:23;;;;;;;7.35;5.72;;;;;;;19.39;100.00;99402.09;4700561;30;20872;-77
2022/07/30 11:06:12;;;;;;;6.57;5.77;;;;;;;19.40;100.00;99395.84;4714752;30;20454;-77
2022/07/30 11:08:42;;;;;;;9.13;6.65;;;;;;;19.44;100.00;99386.69;4715156;30;20084;-77
2022/07/30 11:11:22;;;;;;;10.35;6.80;;;;;;;19.50;100.00;99395.88;4714886;30;20072;-77
2022/07/30 11:13:56;;;;;;;;;;;;;;;19.51;100.00;99386.13;4715488;30;20045;-77
2022/07/30 11:16:23;;;;;;;7.40;6.00;;;;;;;19.44;100.00;99383.22;4715076;30;19965;-77
2022/07/30 11:19:12;;;;;;;7.07;6.38;;;;;;;19.52;100.00;99374.63;4713459;30;20081;-77
2022/07/30 11:21:38;;;;;;;8.80;6.40;;;;;;;19.63;100.00;99385.09;4714272;30;20454;-77
2022/07/30 11:24:04;;;;;;;8.93;6.82;;;;;;;19.55;100.00;99372.53;4699689;30;20557;-77
2022/07/30 11:26:38;;;;;;;9.75;7.07;;;;;;;19.58;100.00;99389.91;4728565;30;20052;-76
2022/07/30 11:29:05;;;;;;;8.52;6.90;;;;;;;19.57;100.00;99382.97;4749160;30;20189;-77
2022/07/30 11:31:35;;;;;;;8.27;7.47;;;;;;;19.49;100.00;99375.72;4749143;30;20036;-77
2022/07/30 11:34:18;;;;;;;7.85;7.03;;;;;;;19.48;100.00;99381.97;4749177;30;20131;-77
2022/07/30 11:37:19;;;;;;;8.23;7.25;;;;;;;19.47;100.00;99375.03;4749378;30;20405;-77